Time;durP1;ratioP1;P1;durP2;ratioP2;P2;SDS_P1;SDS_P2;PMS_P1;PMS_P2;Temp;Humidity;BMP_temperature;BMP_pressure;BME280_temperature;BME280_humidity;BME280_pressure;Samples;Min_cycle;Max_cycle;Signal;HPM_P1;HPM_P2
2021/05/22 00:00:59;;;;;;;14.20;2.65;;;;;;;;;;5109950;27;20042;-74
2021/05/22 00:03:25;;;;;;;12.27;2.35;;;;;;;;;;5105965;28;20114;-74
2021/05/22 00:05:51;;;;;;;16.85;3.17;;;;;;;;;;5116281;27;20043;-74
2021/05/22 00:08:17;;;;;;;16.15;2.75;;;;;;;;;;5107181;28;20470;-74
2021/05/22 00:10:43;;;;;;;15.27;2.33;;;;;;;;;;5111343;28;20713;-74
2021/05/22 00:13:10;;;;;;;18.80;2.88;;;;;;;;;;5111197;27;20044;-74
2021/05/22 00:15:36;;;;;;;18.45;3.13;;;;;;;;;;5110967;28;20032;-74
2021/05/22 00:18:02;;;;;;;14.43;2.95;;;;;;;;;;5109084;27;20047;-74
2021/05/22 00:20:28;;;;;;;14.65;2.05;;;;;;;;;;5109691;28;20044;-74
2021/05/22 00:22:55;;;;;;;14.48;2.95;;;;;;;;;;5109524;28;20047;-74
2021/05/22 00:25:21;;;;;;;16.80;2.97;;;;;;;;;;5110235;28;20835;-74
2021/05/22 00:27:47;;;;;;;10.15;2.30;;;;;;;;;;5108587;28;20066;-74
2021/05/22 00:30:14;;;;;;;16.38;2.45;;;;;;;;;;5141449;27;21277;-74
2021/05/22 00:32:40;;;;;;;17.65;2.50;;;;;;;;;;5137051;27;21800;-75
2021/05/22 00:35:06;;;;;;;15.35;2.50;;;;;;;;;;5109008;28;20478;-75
2021/05/22 00:37:33;;;;;;;14.82;2.72;;;;;;;;;;5134200;27;20036;-74
2021/05/22 00:39:59;;;;;;;13.25;2.38;;;;;;;;;;5140465;27;20040;-75
2021/05/22 00:42:28;;;;;;;15.88;2.20;;;;;;;;;;5107359;28;20043;-74
2021/05/22 00:45:04;;;;;;;15.23;2.15;;;;;;;;;;5111252;28;20043;-74
2021/05/22 00:47:30;;;;;;;13.40;2.28;;;;;;;;;;5099059;28;20043;-74
2021/05/22 00:49:56;;;;;;;12.70;2.75;;;;;;;;;;5113890;28;20043;-75
2021/05/22 00:52:23;;;;;;;16.77;2.40;;;;;;;;;;5105835;28;21007;-74
2021/05/22 00:54:49;;;;;;;17.55;2.28;;;;;;;;;;5138185;27;20483;-75
2021/05/22 00:57:17;;;;;;;13.52;2.00;;;;;;;;;;5105988;28;20470;-75
2021/05/22 00:59:43;;;;;;;15.02;2.65;;;;;;;;;;5114383;27;20040;-74
2021/05/22 01:02:14;;;;;;;14.90;2.47;;;;;;;;;;5144073;27;20075;-74
2021/05/22 01:04:40;;;;;;;16.92;2.72;;;;;;;;;;5114649;27;20057;-74
2021/05/22 01:07:06;;;;;;;17.58;3.20;;;;;;;;;;5111932;27;20044;-74
2021/05/22 01:09:32;;;;;;;11.35;2.45;;;;;;;;;;5135061;27;20086;-74
2021/05/22 01:12:03;;;;;;;18.40;2.67;;;;;;;;;;5116673;27;20066;-74
2021/05/22 01:14:35;;;;;;;13.57;2.13;;;;;;;;;;5115857;27;20050;-74
2021/05/22 01:17:01;;;;;;;18.45;2.35;;;;;;;;;;5119518;27;20056;-74
2021/05/22 01:19:37;;;;;;;13.38;3.10;;;;;;;;;;5105856;27;20082;-75
2021/05/22 01:22:04;;;;;;;15.73;2.33;;;;;;;;;;5113170;27;20036;-74
2021/05/22 01:24:31;;;;;;;13.50;3.10;;;;;;;;;;5112407;28;20138;-74
2021/05/22 01:26:57;;;;;;;15.23;2.35;;;;;;;;;;5115331;27;20035;-74
2021/05/22 01:29:23;;;;;;;13.18;2.53;;;;;;;;;;5109497;28;20036;-74
2021/05/22 01:31:50;;;;;;;18.52;2.47;;;;;;;;;;5122578;27;20131;-75
2021/05/22 01:34:16;;;;;;;21.77;3.35;;;;;;;;;;5103296;27;20055;-75
2021/05/22 01:36:42;;;;;;;15.98;3.03;;;;;;;;;;5109764;27;20815;-74
2021/05/22 01:39:08;;;;;;;11.38;2.40;;;;;;;;;;5113839;27;20534;-74
2021/05/22 01:41:35;;;;;;;18.58;2.50;;;;;;;;;;5110287;27;20088;-74
2021/05/22 01:44:03;;;;;;;16.10;2.60;;;;;;;;;;5110376;27;20048;-75
2021/05/22 01:46:30;;;;;;;13.02;2.53;;;;;;;;;;5122608;27;20042;-74
2021/05/22 01:48:57;;;;;;;14.20;2.08;;;;;;;;;;5115974;27;20043;-75
2021/05/22 01:51:25;;;;;;;22.92;3.33;;;;;;;;;;5113635;27;20492;-75
2021/05/22 01:53:52;;;;;;;12.38;2.30;;;;;;;;;;5111799;28;20059;-74
2021/05/22 01:56:19;;;;;;;16.35;3.05;;;;;;;;;;5141264;27;20036;-75
2021/05/22 01:58:49;;;;;;;16.13;2.92;;;;;;;;;;5107123;27;20103;-75
2021/05/22 02:01:16;;;;;;;10.80;2.58;;;;;;;;;;5112082;27;20482;-75
2021/05/22 02:03:47;;;;;;;11.55;2.30;;;;;;;;;;5112052;27;20035;-74
2021/05/22 02:06:31;;;;;;;22.50;3.35;;;;;;;;;;5111976;27;20447;-75
2021/05/22 02:08:58;;;;;;;14.02;2.38;;;;;;;;;;5107948;28;20856;-75
2021/05/22 02:11:27;;;;;;;12.50;1.48;;;;;;;;;;5114367;27;20209;-74
2021/05/22 02:13:54;;;;;;;18.55;2.30;;;;;;;;;;5111500;27;20042;-74
2021/05/22 02:16:23;;;;;;;16.35;2.35;;;;;;;;;;5123494;27;20040;-74
2021/05/22 02:18:50;;;;;;;9.52;2.10;;;;;;;;;;5119757;27;20039;-74
2021/05/22 02:21:17;;;;;;;11.00;2.28;;;;;;;;;;5116298;27;20063;-74
2021/05/22 02:23:45;;;;;;;12.48;1.85;;;;;;;;;;5109087;27;20036;-74
2021/05/22 02:26:12;;;;;;;9.70;2.03;;;;;;;;;;5112085;27;20034;-74
2021/05/22 02:28:40;;;;;;;13.20;2.65;;;;;;;;;;5093687;28;20042;-74
2021/05/22 02:31:06;;;;;;;7.20;1.60;;;;;;;;;;5111240;27;20574;-74
2021/05/22 02:33:33;;;;;;;12.23;2.33;;;;;;;;;;5109664;28;20066;-74
2021/05/22 02:36:00;;;;;;;11.23;2.33;;;;;;;;;;5114945;27;20093;-74
2021/05/22 02:38:39;;;;;;;11.93;2.13;;;;;;;;;;5109460;27;20051;-74
2021/05/22 02:41:08;;;;;;;11.80;1.55;;;;;;;;;;5109738;27;20114;-74
2021/05/22 02:43:35;;;;;;;8.82;1.95;;;;;;;;;;5109540;27;20088;-74
2021/05/22 02:46:02;;;;;;;11.80;2.47;;;;;;;;;;5154613;27;20039;-75
2021/05/22 02:48:30;;;;;;;10.68;2.42;;;;;;;;;;5124010;27;20093;-74
2021/05/22 02:50:57;;;;;;;8.65;1.88;;;;;;;;;;5132984;27;20069;-75
2021/05/22 02:53:26;;;;;;;9.70;2.20;;;;;;;;;;5112731;28;20037;-75
2021/05/22 02:55:53;;;;;;;9.82;2.47;;;;;;;;;;5111141;27;20129;-75
2021/05/22 02:58:20;;;;;;;8.63;1.95;;;;;;;;;;5111792;27;20038;-75
2021/05/22 03:00:47;;;;;;;12.75;2.13;;;;;;;;;;5130770;27;20036;-75
2021/05/22 03:03:13;;;;;;;9.57;2.20;;;;;;;;;;5110824;27;20485;-75
2021/05/22 03:05:41;;;;;;;7.28;2.13;;;;;;;;;;5136666;27;20397;-74
2021/05/22 03:08:07;;;;;;;9.60;2.30;;;;;;;;;;5112505;27;20047;-75
2021/05/22 03:10:34;;;;;;;10.68;2.05;;;;;;;;;;5109794;27;20129;-74
2021/05/22 03:13:00;;;;;;;10.18;2.33;;;;;;;;;;5110181;28;20039;-75
2021/05/22 03:15:26;;;;;;;12.48;3.13;;;;;;;;;;5113868;27;20104;-75
2021/05/22 03:17:52;;;;;;;8.75;2.65;;;;;;;;;;5137202;27;20097;-75
2021/05/22 03:20:19;;;;;;;14.60;2.30;;;;;;;;;;5112366;27;20046;-75
2021/05/22 03:22:45;;;;;;;12.68;3.08;;;;;;;;;;5109412;28;20031;-74
2021/05/22 03:25:11;;;;;;;10.15;2.53;;;;;;;;;;5105500;28;20131;-74
2021/05/22 03:27:38;;;;;;;12.05;2.38;;;;;;;;;;5110691;28;20435;-74
2021/05/22 03:30:08;;;;;;;10.40;2.95;;;;;;;;;;5107411;28;20115;-74
2021/05/22 03:32:35;;;;;;;11.77;3.13;;;;;;;;;;5104877;27;20055;-75
2021/05/22 03:35:01;;;;;;;9.68;2.60;;;;;;;;;;5110704;27;20036;-74
2021/05/22 03:37:27;;;;;;;10.20;2.60;;;;;;;;;;5111375;28;20640;-74
2021/05/22 03:39:54;;;;;;;11.25;2.45;;;;;;;;;;5111864;27;20047;-75
2021/05/22 03:42:20;;;;;;;9.45;2.78;;;;;;;;;;5132566;27;20064;-75
2021/05/22 03:44:46;;;;;;;9.32;2.33;;;;;;;;;;5109014;27;20518;-74
2021/05/22 03:47:12;;;;;;;7.22;2.40;;;;;;;;;;5120757;27;20108;-75
2021/05/22 03:49:39;;;;;;;15.90;3.10;;;;;;;;;;5120216;27;20122;-74
2021/05/22 03:52:05;;;;;;;10.65;2.53;;;;;;;;;;5108346;28;20521;-75
2021/05/22 03:54:32;;;;;;;12.43;2.88;;;;;;;;;;5105724;28;20081;-75
2021/05/22 03:56:58;;;;;;;7.88;2.50;;;;;;;;;;5109531;27;20803;-75
2021/05/22 03:59:24;;;;;;;11.88;2.97;;;;;;;;;;5109650;27;21295;-75
2021/05/22 04:01:50;;;;;;;13.35;2.65;;;;;;;;;;5109121;27;20104;-74
2021/05/22 04:04:16;;;;;;;10.90;3.42;;;;;;;;;;5111441;27;20079;-75
2021/05/22 04:06:43;;;;;;;8.43;2.47;;;;;;;;;;5109816;27;20089;-74
2021/05/22 04:09:09;;;;;;;14.15;3.15;;;;;;;;;;5108648;28;20047;-74
2021/05/22 04:11:35;;;;;;;10.35;3.08;;;;;;;;;;5105401;28;20069;-75
2021/05/22 04:14:01;;;;;;;14.18;3.22;;;;;;;;;;5112153;28;20599;-74
2021/05/22 04:16:28;;;;;;;7.95;3.30;;;;;;;;;;5109473;28;20036;-74
2021/05/22 04:18:55;;;;;;;18.10;4.00;;;;;;;;;;5117063;27;20452;-74
2021/05/22 04:21:21;;;;;;;13.48;3.47;;;;;;;;;;5105797;28;20553;-74
2021/05/22 04:23:47;;;;;;;13.20;4.30;;;;;;;;;;5108310;28;20083;-74
2021/05/22 04:26:13;;;;;;;15.55;4.25;;;;;;;;;;5109791;28;20367;-74
2021/05/22 04:28:40;;;;;;;17.42;4.82;;;;;;;;;;5102114;28;20047;-74
2021/05/22 04:31:06;;;;;;;10.55;4.20;;;;;;;;;;5108763;28;20182;-75
2021/05/22 04:33:32;;;;;;;15.27;5.15;;;;;;;;;;5111281;27;20053;-75
2021/05/22 04:35:58;;;;;;;16.77;4.25;;;;;;;;;;5113241;27;20922;-75
2021/05/22 04:38:24;;;;;;;10.55;4.35;;;;;;;;;;5114193;27;20429;-75
2021/05/22 04:40:50;;;;;;;17.75;5.20;;;;;;;;;;5112899;27;20043;-74
2021/05/22 04:43:17;;;;;;;14.82;4.50;;;;;;;;;;5118558;27;20044;-75
2021/05/22 04:45:43;;;;;;;13.27;3.80;;;;;;;;;;5113844;27;20462;-75
2021/05/22 04:48:11;;;;;;;11.05;4.50;;;;;;;;;;5128255;27;20047;-75
2021/05/22 04:50:37;;;;;;;13.05;4.60;;;;;;;;;;5114873;27;20047;-74
2021/05/22 04:53:03;;;;;;;10.20;4.63;;;;;;;;;;5132571;27;20472;-75
2021/05/22 04:55:29;;;;;;;15.68;5.32;;;;;;;;;;5113368;27;20051;-75
2021/05/22 04:58:00;;;;;;;11.98;4.70;;;;;;;;;;5141839;27;20119;-75
2021/05/22 05:00:26;;;;;;;8.75;3.80;;;;;;;;;;5115860;27;20097;-75
2021/05/22 05:02:54;;;;;;;12.02;4.80;;;;;;;;;;5109720;27;22241;-74
2021/05/22 05:05:20;;;;;;;9.05;4.35;;;;;;;;;;5115734;27;20047;-75
2021/05/22 05:07:47;;;;;;;14.65;5.82;;;;;;;;;;5113211;27;20036;-74
2021/05/22 05:10:13;;;;;;;15.70;4.93;;;;;;;;;;5112859;27;20047;-75
2021/05/22 05:12:39;;;;;;;14.70;4.20;;;;;;;;;;5114233;27;20119;-74
2021/05/22 05:15:06;;;;;;;13.85;5.57;;;;;;;;;;5117132;27;20043;-74
2021/05/22 05:17:33;;;;;;;14.77;5.40;;;;;;;;;;5124616;27;20043;-75
2021/05/22 05:19:59;;;;;;;11.82;4.50;;;;;;;;;;5124612;27;20035;-74
2021/05/22 05:22:29;;;;;;;14.38;5.20;;;;;;;;;;5112789;27;20040;-74
2021/05/22 05:24:55;;;;;;;10.70;5.10;;;;;;;;;;5115100;27;20056;-74
2021/05/22 05:27:22;;;;;;;11.50;5.60;;;;;;;;;;5112672;27;20035;-74
2021/05/22 05:29:48;;;;;;;7.72;3.90;;;;;;;;;;5112773;27;20043;-75
2021/05/22 05:32:14;;;;;;;12.95;5.63;;;;;;;;;;5114789;27;20112;-75
2021/05/22 05:34:41;;;;;;;9.88;5.25;;;;;;;;;;5113082;27;20126;-74
2021/05/22 05:37:08;;;;;;;9.02;4.25;;;;;;;;;;5116327;27;20065;-74
2021/05/22 05:39:35;;;;;;;9.25;4.75;;;;;;;;;;5115263;27;20039;-74
2021/05/22 05:42:01;;;;;;;12.50;5.38;;;;;;;;;;5113761;27;20052;-74
2021/05/22 05:44:27;;;;;;;8.27;4.80;;;;;;;;;;5110879;27;20490;-74
2021/05/22 05:46:53;;;;;;;10.07;4.38;;;;;;;;;;5121200;27;20046;-74
2021/05/22 05:49:19;;;;;;;12.85;6.22;;;;;;;;;;5126402;27;20050;-74
2021/05/22 05:51:45;;;;;;;12.82;6.05;;;;;;;;;;5115203;27;20035;-74
2021/05/22 05:54:12;;;;;;;10.68;5.80;;;;;;;;;;5111870;27;20047;-74
2021/05/22 05:56:38;;;;;;;9.65;5.18;;;;;;;;;;5113725;27;20075;-75
2021/05/22 05:59:04;;;;;;;12.35;4.18;;;;;;;;;;5113621;27;20039;-75
2021/05/22 06:01:31;;;;;;;8.88;4.65;;;;;;;;;;5115685;27;20090;-75
2021/05/22 06:03:57;;;;;;;10.70;4.40;;;;;;;;;;5111938;27;20050;-74
2021/05/22 06:06:25;;;;;;;15.02;4.88;;;;;;;;;;5100304;27;20095;-74
2021/05/22 06:08:52;;;;;;;7.88;3.65;;;;;;;;;;5111321;27;20040;-74
2021/05/22 06:11:20;;;;;;;9.13;4.90;;;;;;;;;;5093183;27;20036;-75
2021/05/22 06:13:46;;;;;;;8.60;4.40;;;;;;;;;;5115239;27;20043;-74
2021/05/22 06:16:20;;;;;;;7.93;4.40;;;;;;;;;;5105238;27;20051;-74
2021/05/22 06:18:48;;;;;;;11.52;5.53;;;;;;;;;;5128987;27;20134;-74
2021/05/22 06:21:15;;;;;;;10.48;4.80;;;;;;;;;;5106580;27;20063;-74
2021/05/22 06:23:41;;;;;;;12.13;6.45;;;;;;;;;;5111938;27;20088;-74
2021/05/22 06:26:08;;;;;;;13.55;6.50;;;;;;;;;;5110791;27;20036;-74
2021/05/22 06:28:34;;;;;;;13.00;5.85;;;;;;;;;;5113582;27;20050;-74
2021/05/22 06:31:01;;;;;;;11.43;5.32;;;;;;;;;;5109715;27;20798;-75
2021/05/22 06:33:27;;;;;;;12.55;6.22;;;;;;;;;;5112621;27;20031;-75
2021/05/22 06:35:53;;;;;;;9.32;5.35;;;;;;;;;;5109686;27;20397;-75
2021/05/22 06:38:20;;;;;;;12.85;5.43;;;;;;;;;;5109618;27;20053;-75
2021/05/22 06:40:46;;;;;;;11.15;6.95;;;;;;;;;;5113291;27;20035;-75
2021/05/22 06:43:13;;;;;;;14.00;6.38;;;;;;;;;;5116796;27;20066;-75
2021/05/22 06:45:41;;;;;;;11.48;5.70;;;;;;;;;;5141191;27;20039;-76
2021/05/22 06:48:08;;;;;;;15.00;7.20;;;;;;;;;;5111221;27;20047;-76
2021/05/22 06:50:34;;;;;;;13.60;7.20;;;;;;;;;;5122015;27;20040;-76
2021/05/22 06:53:01;;;;;;;11.20;6.55;;;;;;;;;;5124999;27;20039;-75
2021/05/22 06:55:27;;;;;;;14.60;7.55;;;;;;;;;;5112476;27;20397;-76
2021/05/22 06:57:54;;;;;;;16.10;8.27;;;;;;;;;;5110840;27;20051;-76
2021/05/22 07:00:21;;;;;;;13.48;7.68;;;;;;;;;;5112582;27;20690;-75
2021/05/22 07:02:47;;;;;;;14.20;8.45;;;;;;;;;;5109855;27;20413;-75
2021/05/22 07:05:14;;;;;;;7.53;6.07;;;;;;;;;;5113654;27;20109;-74
2021/05/22 07:07:41;;;;;;;11.77;6.32;;;;;;;;;;5108894;27;20043;-74
2021/05/22 07:10:09;;;;;;;9.50;5.85;;;;;;;;;;5136885;27;20058;-75
2021/05/22 07:12:35;;;;;;;9.77;6.18;;;;;;;;;;5112442;27;20489;-75
2021/05/22 07:15:01;;;;;;;10.10;5.30;;;;;;;;;;5111844;27;20035;-74
2021/05/22 07:17:28;;;;;;;12.63;6.18;;;;;;;;;;5095110;28;20450;-75
2021/05/22 07:19:54;;;;;;;8.45;5.60;;;;;;;;;;5121696;27;20031;-76
2021/05/22 07:22:20;;;;;;;8.65;4.00;;;;;;;;;;5104028;28;20036;-76
2021/05/22 07:24:48;;;;;;;6.40;4.25;;;;;;;;;;5106646;28;20070;-74
2021/05/22 07:27:15;;;;;;;6.53;3.53;;;;;;;;;;5140487;27;20063;-76
2021/05/22 07:29:42;;;;;;;6.53;3.45;;;;;;;;;;5115447;27;20035;-73
2021/05/22 07:32:08;;;;;;;6.32;2.95;;;;;;;;;;5133228;27;20613;-72
2021/05/22 07:34:34;;;;;;;5.82;3.10;;;;;;;;;;5112513;27;20478;-72
2021/05/22 07:37:00;;;;;;;6.28;3.90;;;;;;;;;;5102221;27;20048;-75
2021/05/22 07:39:29;;;;;;;6.35;4.13;;;;;;;;;;5111731;27;20054;-75
2021/05/22 07:41:55;;;;;;;8.02;4.20;;;;;;;;;;5125823;27;20043;-76
2021/05/22 07:44:21;;;;;;;7.47;3.67;;;;;;;;;;5126020;27;20043;-76
2021/05/22 07:46:47;;;;;;;9.02;4.25;;;;;;;;;;5088498;27;20488;-76
2021/05/22 07:49:13;;;;;;;8.23;5.18;;;;;;;;;;5098581;27;20565;-76
2021/05/22 07:51:41;;;;;;;5.75;3.13;;;;;;;;;;5127217;27;20386;-75
2021/05/22 07:54:07;;;;;;;9.55;4.55;;;;;;;;;;5116471;27;20077;-74
2021/05/22 07:56:33;;;;;;;9.80;5.45;;;;;;;;;;5118159;27;20125;-76
2021/05/22 07:58:59;;;;;;;9.80;4.82;;;;;;;;;;5123134;27;20069;-75
2021/05/22 08:01:26;;;;;;;9.00;5.32;;;;;;;;;;5118543;27;20031;-74
2021/05/22 08:03:52;;;;;;;9.63;5.55;;;;;;;;;;5107774;27;20452;-77
2021/05/22 08:06:18;;;;;;;9.70;5.88;;;;;;;;;;5105031;27;20036;-72
2021/05/22 08:08:46;;;;;;;8.90;6.07;;;;;;;;;;5107866;27;20039;-78
2021/05/22 08:11:13;;;;;;;10.82;5.18;;;;;;;;;;5098494;28;20050;-75
2021/05/22 08:13:40;;;;;;;14.18;7.32;;;;;;;;;;5098020;28;20032;-74
2021/05/22 08:16:06;;;;;;;15.45;6.68;;;;;;;;;;5138025;27;20028;-74
2021/05/22 08:18:32;;;;;;;11.48;7.65;;;;;;;;;;5095192;28;20039;-74
2021/05/22 08:20:58;;;;;;;9.75;6.07;;;;;;;;;;5139528;27;20040;-73
2021/05/22 08:23:25;;;;;;;19.08;7.13;;;;;;;;;;5103042;28;20040;-73
2021/05/22 08:25:51;;;;;;;17.38;6.63;;;;;;;;;;5106468;28;20036;-74
2021/05/22 08:28:21;;;;;;;22.75;8.07;;;;;;;;;;5102259;28;20047;-74
2021/05/22 08:30:50;;;;;;;25.00;9.73;;;;;;;;;;5130944;27;20127;-75
2021/05/22 08:33:17;;;;;;;19.23;8.18;;;;;;;;;;5134815;27;20085;-74
2021/05/22 08:35:43;;;;;;;17.98;7.35;;;;;;;;;;5130201;27;20036;-74
2021/05/22 08:38:10;;;;;;;14.10;6.82;;;;;;;;;;5116697;27;20704;-74
2021/05/22 08:40:36;;;;;;;20.60;8.68;;;;;;;;;;5129392;27;20071;-74
2021/05/22 08:43:03;;;;;;;19.88;7.82;;;;;;;;;;5134528;27;20112;-74
2021/05/22 08:45:30;;;;;;;14.25;6.32;;;;;;;;;;5106850;28;20036;-75
2021/05/22 08:47:58;;;;;;;14.40;5.70;;;;;;;;;;5094927;28;20127;-75
2021/05/22 08:50:24;;;;;;;14.18;5.40;;;;;;;;;;5127071;27;20130;-74
2021/05/22 08:52:54;;;;;;;13.23;5.30;;;;;;;;;;5131141;27;20039;-74
2021/05/22 08:55:20;;;;;;;14.98;6.60;;;;;;;;;;5106675;28;20086;-74
2021/05/22 08:57:46;;;;;;;15.88;6.32;;;;;;;;;;5100509;28;20047;-74
2021/05/22 09:00:15;;;;;;;16.13;5.63;;;;;;;;;;5107624;28;20778;-74
2021/05/22 09:02:42;;;;;;;14.38;4.82;;;;;;;;;;5134557;27;20074;-74
2021/05/22 09:05:11;;;;;;;16.17;6.47;;;;;;;;;;5136728;27;20043;-74
2021/05/22 09:07:39;;;;;;;15.23;5.05;;;;;;;;;;5134743;27;20044;-78
2021/05/22 09:10:08;;;;;;;10.02;4.88;;;;;;;;;;5111252;28;20827;-77
2021/05/22 09:12:36;;;;;;;12.48;4.80;;;;;;;;;;5120486;28;20032;-78
2021/05/22 09:15:09;;;;;;;9.98;4.15;;;;;;;;;;5101889;28;20048;-75
2021/05/22 09:17:35;;;;;;;13.50;4.22;;;;;;;;;;5110287;27;20058;-81
2021/05/22 09:20:14;;;;;;;15.25;5.55;;;;;;;;;;5094389;28;20051;-80
2021/05/22 09:22:40;;;;;;;11.80;5.13;;;;;;;;;;5094160;28;20097;-80
2021/05/22 09:25:07;;;;;;;11.40;4.10;;;;;;;;;;5124045;27;20038;-80
2021/05/22 09:27:38;;;;;;;11.57;4.10;;;;;;;;;;5133178;27;20201;-80
2021/05/22 09:30:14;;;;;;;13.38;4.32;;;;;;;;;;5122803;27;20054;-81
2021/05/22 09:32:41;;;;;;;9.38;4.50;;;;;;;;;;5115700;27;20086;-79
2021/05/22 09:35:08;;;;;;;12.15;4.57;;;;;;;;;;5110453;27;20113;-81
2021/05/22 09:37:53;;;;;;;9.10;3.97;;;;;;;;;;5108567;27;20062;-80
2021/05/22 09:40:22;;;;;;;10.60;3.97;;;;;;;;;;5147011;27;20386;-80
2021/05/22 09:42:49;;;;;;;5.80;2.90;;;;;;;;;;5140981;27;20047;-81
2021/05/22 09:45:26;;;;;;;8.02;3.53;;;;;;;;;;5137522;27;20040;-81
2021/05/22 09:47:52;;;;;;;10.55;3.47;;;;;;;;;;5128374;27;20040;-80
2021/05/22 09:50:25;;;;;;;10.10;3.15;;;;;;;;;;5123321;27;20051;-78
2021/05/22 09:52:52;;;;;;;13.02;3.88;;;;;;;;;;5147612;27;20063;-79
2021/05/22 09:55:20;;;;;;;8.23;3.03;;;;;;;;;;5140104;27;20428;-79
2021/05/22 09:57:46;;;;;;;11.32;2.38;;;;;;;;;;5145891;27;20052;-81
2021/05/22 10:00:16;;;;;;;7.45;2.22;;;;;;;;;;5140375;27;20071;-80
2021/05/22 10:02:44;;;;;;;9.93;2.35;;;;;;;;;;5133760;27;20054;-80
2021/05/22 10:05:24;;;;;;;10.65;3.20;;;;;;;;;;5125724;27;20048;-80
2021/05/22 10:07:51;;;;;;;9.13;2.60;;;;;;;;;;5144063;27;20043;-80
2021/05/22 10:10:17;;;;;;;8.90;2.40;;;;;;;;;;5130847;27;20088;-79
2021/05/22 10:12:46;;;;;;;10.85;2.53;;;;;;;;;;5136150;27;20035;-80
2021/05/22 10:15:13;;;;;;;7.72;2.65;;;;;;;;;;5126010;27;20043;-81
2021/05/22 10:17:39;;;;;;;8.40;2.92;;;;;;;;;;5129745;27;20638;-81
2021/05/22 10:20:06;;;;;;;7.10;2.30;;;;;;;;;;5129427;27;20448;-81
2021/05/22 10:22:33;;;;;;;9.82;2.20;;;;;;;;;;5129642;27;20056;-80
2021/05/22 10:25:01;;;;;;;7.32;2.03;;;;;;;;;;5130128;27;20036;-80
2021/05/22 10:27:28;;;;;;;7.18;2.78;;;;;;;;;;5137885;27;20089;-78
2021/05/22 10:29:54;;;;;;;10.23;2.50;;;;;;;;;;5102993;27;20156;-80
2021/05/22 10:32:22;;;;;;;10.00;2.40;;;;;;;;;;5111730;28;20402;-78
2021/05/22 10:34:49;;;;;;;7.65;2.00;;;;;;;;;;5127347;27;20138;-80
2021/05/22 10:37:40;;;;;;;11.77;2.30;;;;;;;;;;5111584;27;20039;-80
2021/05/22 10:40:06;;;;;;;7.38;2.25;;;;;;;;;;5107857;28;20112;-79
2021/05/22 10:42:33;;;;;;;7.60;2.20;;;;;;;;;;5128396;27;20051;-80
2021/05/22 10:45:19;;;;;;;7.43;2.38;;;;;;;;;;5145173;27;20071;-80
2021/05/22 10:47:45;;;;;;;8.02;1.80;;;;;;;;;;5098729;28;20037;-80
2021/05/22 10:50:12;;;;;;;7.35;2.28;;;;;;;;;;5097395;27;20040;-80
2021/05/22 10:52:38;;;;;;;6.25;2.78;;;;;;;;;;5094972;28;20040;-80
2021/05/22 10:55:04;;;;;;;6.43;2.10;;;;;;;;;;5125225;27;20093;-80
2021/05/22 10:57:32;;;;;;;9.50;2.20;;;;;;;;;;5128736;27;20071;-80
2021/05/22 11:00:17;;;;;;;10.73;2.13;;;;;;;;;;5125628;27;20044;-80
2021/05/22 11:02:45;;;;;;;4.72;1.60;;;;;;;;;;5133265;27;20044;-79
2021/05/22 11:05:27;;;;;;;7.53;1.90;;;;;;;;;;5144492;27;20155;-80
2021/05/22 11:08:09;;;;;;;5.72;1.52;;;;;;;;;;5128101;27;20043;-80
2021/05/22 11:10:38;;;;;;;11.68;1.60;;;;;;;;;;5132193;27;20470;-80
2021/05/22 11:13:12;;;;;;;7.25;1.50;;;;;;;;;;5128011;27;20035;-80
2021/05/22 11:15:41;;;;;;;3.88;1.30;;;;;;;;;;5120582;27;20111;-78
2021/05/22 11:18:08;;;;;;;6.15;1.48;;;;;;;;;;5106706;27;20039;-80
2021/05/22 11:20:34;;;;;;;6.30;1.60;;;;;;;;;;5098043;27;20049;-78
2021/05/22 11:23:01;;;;;;;5.47;1.67;;;;;;;;;;5107725;27;20449;-80
2021/05/22 11:25:43;;;;;;;6.72;1.80;;;;;;;;;;5112346;27;20035;-79
2021/05/22 11:28:16;;;;;;;6.00;1.35;;;;;;;;;;5106804;27;20052;-83
2021/05/22 11:30:48;;;;;;;6.07;1.42;;;;;;;;;;5118869;27;20220;-85
2021/05/22 11:33:21;;;;;;;7.80;1.83;;;;;;;;;;5112106;27;20120;-82
2021/05/22 11:35:51;;;;;;;6.68;1.65;;;;;;;;;;5107840;27;20088;-73
2021/05/22 11:38:17;;;;;;;6.15;1.50;;;;;;;;;;5107792;27;20067;-74
2021/05/22 11:40:44;;;;;;;4.22;1.70;;;;;;;;;;5109714;27;20122;-68
2021/05/22 11:43:13;;;;;;;8.73;1.63;;;;;;;;;;5113498;28;20139;-73
2021/05/22 11:45:47;;;;;;;8.65;2.35;;;;;;;;;;5139797;27;20059;-73
2021/05/22 11:48:30;;;;;;;5.68;2.00;;;;;;;;;;5116272;27;20047;-73
2021/05/22 11:50:59;;;;;;;7.22;1.55;;;;;;;;;;5106510;27;20500;-72
2021/05/22 11:53:26;;;;;;;4.07;1.40;;;;;;;;;;5119845;27;20485;-73
2021/05/22 11:56:09;;;;;;;3.15;1.48;;;;;;;;;;5111730;27;20486;-73
2021/05/22 11:58:37;;;;;;;4.60;1.77;;;;;;;;;;5107881;28;20077;-73
2021/05/22 12:01:33;;;;;;;3.42;1.70;;;;;;;;;;5145086;27;20304;-72
2021/05/22 12:04:01;;;;;;;3.05;1.73;;;;;;;;;;5127624;27;20547;-72
2021/05/22 12:06:41;;;;;;;8.02;1.77;;;;;;;;;;5122928;27;20050;-73
2021/05/22 12:09:08;;;;;;;5.93;2.05;;;;;;;;;;5123068;27;20042;-72
2021/05/22 12:11:37;;;;;;;5.45;2.05;;;;;;;;;;5129718;27;20043;-73
2021/05/22 12:14:08;;;;;;;3.70;1.50;;;;;;;;;;5130506;27;20042;-75
2021/05/22 12:16:35;;;;;;;5.90;1.77;;;;;;;;;;5123196;27;20051;-73
2021/05/22 12:19:15;;;;;;;2.10;1.90;;;;;;;;;;5122011;27;20492;-72
2021/05/22 12:21:41;;;;;;;4.90;2.55;;;;;;;;;;5110003;27;20060;-74
2021/05/22 12:24:09;;;;;;;5.13;2.47;;;;;;;;;;5109872;28;20494;-73
2021/05/22 12:26:36;;;;;;;4.80;2.70;;;;;;;;;;5112811;27;20047;-73
2021/05/22 12:29:03;;;;;;;6.18;3.00;;;;;;;;;;5113920;28;20107;-73
2021/05/22 12:31:29;;;;;;;6.05;3.00;;;;;;;;;;5119154;27;20449;-80
2021/05/22 12:34:00;;;;;;;5.38;3.17;;;;;;;;;;5093008;28;20070;-76
2021/05/22 12:36:26;;;;;;;5.63;3.00;;;;;;;;;;5139583;27;20047;-74
2021/05/22 12:38:52;;;;;;;6.05;3.65;;;;;;;;;;5129096;27;20044;-83
2021/05/22 12:41:31;;;;;;;8.57;3.33;;;;;;;;;;5114971;27;20062;-85
2021/05/22 12:43:57;;;;;;;5.80;3.30;;;;;;;;;;5110077;28;20027;-74
2021/05/22 12:46:34;;;;;;;6.95;2.95;;;;;;;;;;5140654;27;20088;-76
2021/05/22 12:49:08;;;;;;;6.18;3.72;;;;;;;;;;5131342;27;20040;-76
2021/05/22 12:51:34;;;;;;;6.28;3.15;;;;;;;;;;5112353;28;20047;-76
2021/05/22 12:54:21;;;;;;;8.07;3.72;;;;;;;;;;5107012;27;20078;-75
2021/05/22 12:56:57;;;;;;;7.70;4.03;;;;;;;;;;5131748;27;20123;-76
2021/05/22 12:59:23;;;;;;;10.05;4.18;;;;;;;;;;5117735;27;20047;-76
2021/05/22 13:02:08;;;;;;;12.57;3.88;;;;;;;;;;5121211;27;20114;-76
2021/05/22 13:04:34;;;;;;;7.85;3.50;;;;;;;;;;5119222;27;20039;-75
2021/05/22 13:07:01;;;;;;;9.65;3.90;;;;;;;;;;5125436;27;20036;-75
2021/05/22 13:09:28;;;;;;;8.60;3.72;;;;;;;;;;5117497;27;20054;-75
2021/05/22 13:12:01;;;;;;;9.95;4.13;;;;;;;;;;5127871;27;20039;-75
2021/05/22 13:14:48;;;;;;;10.50;4.00;;;;;;;;;;5115082;28;20039;-75
2021/05/22 13:17:14;;;;;;;12.18;4.55;;;;;;;;;;5098412;27;20433;-75
2021/05/22 13:19:51;;;;;;;13.65;4.38;;;;;;;;;;5104779;27;20066;-75
2021/05/22 13:22:29;;;;;;;12.02;4.28;;;;;;;;;;5128537;27;20426;-75
2021/05/22 13:25:03;;;;;;;12.70;4.28;;;;;;;;;;5146784;27;20051;-75
2021/05/22 13:27:30;;;;;;;9.82;4.75;;;;;;;;;;5132536;27;20078;-74
2021/05/22 13:29:57;;;;;;;12.45;4.53;;;;;;;;;;5130977;27;20055;-76
2021/05/22 13:32:23;;;;;;;11.27;4.05;;;;;;;;;;5111928;27;20051;-75
2021/05/22 13:34:50;;;;;;;11.48;4.15;;;;;;;;;;5115215;27;20039;-75
2021/05/22 13:37:17;;;;;;;12.82;4.45;;;;;;;;;;5115466;27;20058;-76
2021/05/22 13:39:44;;;;;;;12.05;3.97;;;;;;;;;;5118122;27;20363;-76
2021/05/22 13:42:10;;;;;;;11.77;3.42;;;;;;;;;;5150000;27;20039;-73
2021/05/22 13:44:37;;;;;;;9.85;3.38;;;;;;;;;;5108910;27;20047;-72
2021/05/22 13:47:03;;;;;;;9.15;3.35;;;;;;;;;;5109917;27;20061;-74
2021/05/22 13:49:29;;;;;;;8.75;3.17;;;;;;;;;;5108408;27;20051;-75
2021/05/22 13:51:56;;;;;;;9.05;3.00;;;;;;;;;;5117234;27;20044;-76
2021/05/22 13:54:22;;;;;;;5.72;2.60;;;;;;;;;;5106554;28;20152;-76
2021/05/22 13:56:48;;;;;;;7.05;2.83;;;;;;;;;;5129217;27;20039;-76
2021/05/22 13:59:14;;;;;;;15.68;3.47;;;;;;;;;;5121458;27;20043;-76
2021/05/22 14:01:41;;;;;;;5.20;2.85;;;;;;;;;;5100332;28;20051;-76
2021/05/22 14:04:08;;;;;;;5.05;2.38;;;;;;;;;;5096440;28;20051;-76
2021/05/22 14:06:35;;;;;;;10.27;3.25;;;;;;;;;;5127567;27;20048;-76
2021/05/22 14:09:01;;;;;;;15.77;3.60;;;;;;;;;;5143011;27;20046;-76
2021/05/22 14:11:27;;;;;;;11.85;3.08;;;;;;;;;;5105563;28;20040;-76
2021/05/22 14:13:53;;;;;;;9.65;2.65;;;;;;;;;;5129091;27;20051;-76
2021/05/22 14:16:20;;;;;;;13.38;2.78;;;;;;;;;;5114911;28;20035;-75
2021/05/22 14:18:46;;;;;;;8.00;2.75;;;;;;;;;;5129988;27;20039;-76
2021/05/22 14:21:13;;;;;;;11.35;3.17;;;;;;;;;;5096463;28;20098;-76
2021/05/22 14:23:39;;;;;;;11.80;2.90;;;;;;;;;;5148074;27;20043;-76
2021/05/22 14:26:06;;;;;;;16.38;3.40;;;;;;;;;;5094159;28;20040;-75
2021/05/22 14:28:32;;;;;;;15.00;4.20;;;;;;;;;;5094432;28;20048;-75
2021/05/22 14:31:00;;;;;;;17.92;3.58;;;;;;;;;;5127149;27;20098;-76
2021/05/22 14:33:27;;;;;;;14.80;3.70;;;;;;;;;;5094323;28;20056;-76
2021/05/22 14:35:53;;;;;;;16.98;3.85;;;;;;;;;;5143529;27;20040;-76
2021/05/22 14:38:20;;;;;;;22.73;3.85;;;;;;;;;;5114256;28;20432;-76
2021/05/22 14:40:46;;;;;;;16.40;3.90;;;;;;;;;;5112432;28;20126;-76